Weather at Mopti Ambodédjo International Airport

Public forecast

Using degrees Celsius for public forecast. Weather courtesy of forecast.io.

Current aviation weather report (METAR) for Mopti Ambodédjo International Airport

2024/07/25 07:00 (retrieved 24 minutes ago)

GAMB 250700Z 06004KT 9999 FEW030 FEW040CB 27/25 Q1016

Closest aviation forecast (TAF) to Mopti Ambodédjo International Airport

Closest forecast is Modibo Keita International Airport, 255.3 nm (472.8 km) WSW.

2024/07/25 06:00 (retrieved 1 hour ago)

TAF GABS 250500Z 2506/2612 27004KT 9999 FEW016 TEMPO 2506/2508 3000 BR PROB30 TEMPO 2514/2518 4000 TS SHRA BKN016 FEW030CB PROB40 TEMPO 2603/2608 08020G35KT 3000 TSRA BKN020 SCT030CB